sensor_id;sensor_type;location;lat;lon;timestamp;pressure;altitude;pressure_sealevel;temperature;humidity
77590;BME280;66746;51.328;12.332;2023-06-22T00:01:10;100672.72;;;20.61;79.57
77590;BME280;66746;51.328;12.332;2023-06-22T00:03:36;100674.94;;;20.56;80.20
77590;BME280;66746;51.328;12.332;2023-06-22T00:06:03;100675.91;;;20.55;80.43
77590;BME280;66746;51.328;12.332;2023-06-22T00:08:29;100669.09;;;20.48;80.03
77590;BME280;66746;51.328;12.332;2023-06-22T00:10:57;100676.59;;;20.46;80.33
77590;BME280;66746;51.328;12.332;2023-06-22T00:13:23;100667.66;;;20.42;80.56
77590;BME280;66746;51.328;12.332;2023-06-22T00:15:50;100664.25;;;20.39;80.87
77590;BME280;66746;51.328;12.332;2023-06-22T00:18:16;100657.22;;;20.35;80.80
77590;BME280;66746;51.328;12.332;2023-06-22T00:20:43;100666.91;;;20.27;80.60
77590;BME280;66746;51.328;12.332;2023-06-22T00:23:09;100670.78;;;20.25;81.03
77590;BME280;66746;51.328;12.332;2023-06-22T00:25:36;100671.91;;;20.22;81.51
77590;BME280;66746;51.328;12.332;2023-06-22T00:28:04;100667.59;;;20.18;81.50
77590;BME280;66746;51.328;12.332;2023-06-22T00:30:31;100661.72;;;20.10;81.40
77590;BME280;66746;51.328;12.332;2023-06-22T00:32:58;100661.94;;;20.07;81.97
77590;BME280;66746;51.328;12.332;2023-06-22T00:35:25;100670.53;;;20.03;82.33
77590;BME280;66746;51.328;12.332;2023-06-22T00:37:51;100667.88;;;20.01;82.34
77590;BME280;66746;51.328;12.332;2023-06-22T00:40:19;100666.13;;;20.00;82.17
77590;BME280;66746;51.328;12.332;2023-06-22T00:42:46;100665.34;;;19.98;82.30
77590;BME280;66746;51.328;12.332;2023-06-22T00:45:14;100658.06;;;19.97;82.25
77590;BME280;66746;51.328;12.332;2023-06-22T00:47:42;100657.53;;;19.92;82.67
77590;BME280;66746;51.328;12.332;2023-06-22T00:50:11;100654.91;;;19.91;82.77
77590;BME280;66746;51.328;12.332;2023-06-22T00:52:41;100655.97;;;19.88;82.76
77590;BME280;66746;51.328;12.332;2023-06-22T00:55:09;100648.50;;;19.90;83.19
77590;BME280;66746;51.328;12.332;2023-06-22T00:57:37;100648.63;;;19.89;83.04
77590;BME280;66746;51.328;12.332;2023-06-22T01:00:05;100655.97;;;19.88;83.63
77590;BME280;66746;51.328;12.332;2023-06-22T01:02:34;100655.31;;;19.85;84.02
77590;BME280;66746;51.328;12.332;2023-06-22T01:05:00;100645.22;;;19.85;84.60
77590;BME280;66746;51.328;12.332;2023-06-22T01:07:31;100651.81;;;19.83;84.59
77590;BME280;66746;51.328;12.332;2023-06-22T01:10:06;100653.97;;;19.78;84.73
77590;BME280;66746;51.328;12.332;2023-06-22T01:12:39;100660.59;;;19.75;84.81
77590;BME280;66746;51.328;12.332;2023-06-22T01:15:10;100640.56;;;19.73;85.39
77590;BME280;66746;51.328;12.332;2023-06-22T01:17:40;100652.78;;;19.69;85.51
77590;BME280;66746;51.328;12.332;2023-06-22T01:20:10;100662.13;;;19.67;85.54
77590;BME280;66746;51.328;12.332;2023-06-22T01:22:45;100660.56;;;19.63;85.91
77590;BME280;66746;51.328;12.332;2023-06-22T01:25:20;100658.81;;;19.62;85.60
77590;BME280;66746;51.328;12.332;2023-06-22T01:27:53;100657.16;;;19.59;85.78
77590;BME280;66746;51.328;12.332;2023-06-22T01:30:24;100662.66;;;19.59;85.96
77590;BME280;66746;51.328;12.332;2023-06-22T01:32:54;100659.34;;;19.54;86.20
77590;BME280;66746;51.328;12.332;2023-06-22T01:35:24;100656.81;;;19.51;86.08
77590;BME280;66746;51.328;12.332;2023-06-22T01:37:51;100654.38;;;19.47;86.40
77590;BME280;66746;51.328;12.332;2023-06-22T01:40:18;100657.91;;;19.49;86.82
77590;BME280;66746;51.328;12.332;2023-06-22T01:42:46;100662.53;;;19.48;86.32
77590;BME280;66746;51.328;12.332;2023-06-22T01:45:14;100659.22;;;19.43;86.61
77590;BME280;66746;51.328;12.332;2023-06-22T01:47:42;100658.31;;;19.42;86.96
77590;BME280;66746;51.328;12.332;2023-06-22T01:50:09;100653.72;;;19.43;87.19
77590;BME280;66746;51.328;12.332;2023-06-22T01:52:36;100654.59;;;19.44;87.37
77590;BME280;66746;51.328;12.332;2023-06-22T01:55:03;100663.63;;;19.46;87.33
77590;BME280;66746;51.328;12.332;2023-06-22T01:57:30;100645.34;;;19.45;87.53
77590;BME280;66746;51.328;12.332;2023-06-22T02:00:00;100643.59;;;19.44;87.51
77590;BME280;66746;51.328;12.332;2023-06-22T02:02:57;100646.47;;;19.42;87.36
77590;BME280;66746;51.328;12.332;2023-06-22T02:05:26;100653.16;;;19.38;87.35
77590;BME280;66746;51.328;12.332;2023-06-22T02:08:00;100663.56;;;19.33;87.19
77590;BME280;66746;51.328;12.332;2023-06-22T02:10:31;100664.97;;;19.26;87.13
77590;BME280;66746;51.328;12.332;2023-06-22T02:12:58;100667.72;;;19.26;87.83
77590;BME280;66746;51.328;12.332;2023-06-22T02:15:26;100662.41;;;19.23;87.77
77590;BME280;66746;51.328;12.332;2023-06-22T02:17:55;100662.41;;;19.23;88.48
77590;BME280;66746;51.328;12.332;2023-06-22T02:20:23;100657.00;;;19.21;88.53
77590;BME280;66746;51.328;12.332;2023-06-22T02:22:50;100652.59;;;19.19;88.34
77590;BME280;66746;51.328;12.332;2023-06-22T02:25:17;100657.31;;;19.17;88.75
77590;BME280;66746;51.328;12.332;2023-06-22T02:27:45;100650.84;;;19.18;88.98
77590;BME280;66746;51.328;12.332;2023-06-22T02:30:12;100643.69;;;19.15;88.99
77590;BME280;66746;51.328;12.332;2023-06-22T02:32:39;100659.09;;;19.18;88.72
77590;BME280;66746;51.328;12.332;2023-06-22T02:35:07;100657.31;;;19.17;88.63
77590;BME280;66746;51.328;12.332;2023-06-22T02:37:35;100651.03;;;19.15;88.69
77590;BME280;66746;51.328;12.332;2023-06-22T02:40:01;100651.03;;;19.15;89.48
77590;BME280;66746;51.328;12.332;2023-06-22T02:42:28;100645.78;;;19.12;89.72
77590;BME280;66746;51.328;12.332;2023-06-22T02:44:54;100648.75;;;19.09;89.67
77590;BME280;66746;51.328;12.332;2023-06-22T02:47:21;100649.72;;;19.08;90.14
77590;BME280;66746;51.328;12.332;2023-06-22T02:49:47;100642.34;;;19.08;89.81
77590;BME280;66746;51.328;12.332;2023-06-22T02:52:16;100637.16;;;19.04;90.81
77590;BME280;66746;51.328;12.332;2023-06-22T02:54:43;100640.13;;;19.01;91.41
77590;BME280;66746;51.328;12.332;2023-06-22T02:57:09;100638.34;;;19.00;90.49
77590;BME280;66746;51.328;12.332;2023-06-22T02:59:36;100648.69;;;18.96;90.11
77590;BME280;66746;51.328;12.332;2023-06-22T03:02:09;100646.22;;;18.92;90.33
77590;BME280;66746;51.328;12.332;2023-06-22T03:04:35;100644.47;;;18.91;90.87
77590;BME280;66746;51.328;12.332;2023-06-22T03:07:02;100642.91;;;18.87;91.31
77590;BME280;66746;51.328;12.332;2023-06-22T03:09:32;100646.44;;;18.89;91.84
77590;BME280;66746;51.328;12.332;2023-06-22T03:11:59;100650.94;;;18.90;91.13
77590;BME280;66746;51.328;12.332;2023-06-22T03:14:33;100655.47;;;18.91;91.05
77590;BME280;66746;51.328;12.332;2023-06-22T03:17:00;100651.84;;;18.90;90.88
77590;BME280;66746;51.328;12.332;2023-06-22T03:19:27;100644.47;;;18.91;91.18
77590;BME280;66746;51.328;12.332;2023-06-22T03:21:57;100649.97;;;18.91;91.44
77590;BME280;66746;51.328;12.332;2023-06-22T03:24:24;100641.50;;;18.94;91.31
77590;BME280;66746;51.328;12.332;2023-06-22T03:26:55;100631.50;;;18.93;91.54
77590;BME280;66746;51.328;12.332;2023-06-22T03:29:21;100640.53;;;18.95;91.06
77590;BME280;66746;51.328;12.332;2023-06-22T03:31:48;100648.78;;;18.95;91.42
77590;BME280;66746;51.328;12.332;2023-06-22T03:34:15;100642.28;;;18.96;91.47
77590;BME280;66746;51.328;12.332;2023-06-22T03:36:44;100645.81;;;18.98;90.76
77590;BME280;66746;51.328;12.332;2023-06-22T03:39:11;100655.72;;;19.00;91.13
77590;BME280;66746;51.328;12.332;2023-06-22T03:41:37;100666.50;;;19.03;91.17
77590;BME280;66746;51.328;12.332;2023-06-22T03:44:07;100668.28;;;19.04;90.86
77590;BME280;66746;51.328;12.332;2023-06-22T03:46:35;100680.16;;;19.05;91.40
77590;BME280;66746;51.328;12.332;2023-06-22T03:49:02;100660.56;;;18.97;91.62
77590;BME280;66746;51.328;12.332;2023-06-22T03:51:32;100651.53;;;18.95;91.46
77590;BME280;66746;51.328;12.332;2023-06-22T03:54:00;100672.88;;;19.04;91.72
77590;BME280;66746;51.328;12.332;2023-06-22T03:56:27;100671.34;;;19.00;91.56
77590;BME280;66746;51.328;12.332;2023-06-22T03:58:54;100708.13;;;19.11;91.70
77590;BME280;66746;51.328;12.332;2023-06-22T04:04:25;100694.69;;;19.07;91.69
77590;BME280;66746;51.328;12.332;2023-06-22T04:06:52;100738.03;;;19.30;91.62
77590;BME280;66746;51.328;12.332;2023-06-22T04:09:19;100747.47;;;19.40;91.85
77590;BME280;66746;51.328;12.332;2023-06-22T04:11:45;100740.66;;;19.46;92.07
77590;BME280;66746;51.328;12.332;2023-06-22T04:14:12;100743.53;;;19.57;91.79
77590;BME280;66746;51.328;12.332;2023-06-22T04:16:39;100725.38;;;19.54;91.80
77590;BME280;66746;51.328;12.332;2023-06-22T04:19:06;100727.69;;;19.60;91.74
77590;BME280;66746;51.328;12.332;2023-06-22T04:21:51;100737.44;;;19.78;90.84
77590;BME280;66746;51.328;12.332;2023-06-22T04:24:39;100732.59;;;19.82;91.49
77590;BME280;66746;51.328;12.332;2023-06-22T04:27:05;100739.88;;;19.95;91.16
77590;BME280;66746;51.328;12.332;2023-06-22T04:29:45;100743.66;;;20.07;90.98
77590;BME280;66746;51.328;12.332;2023-06-22T04:32:46;100752.59;;;20.10;91.61
77590;BME280;66746;51.328;12.332;2023-06-22T04:35:36;100758.31;;;20.07;92.45
77590;BME280;66746;51.328;12.332;2023-06-22T04:41:34;100717.88;;;19.95;91.71
77590;BME280;66746;51.328;12.332;2023-06-22T04:44:04;100721.63;;;19.94;93.32
77590;BME280;66746;51.328;12.332;2023-06-22T04:46:44;100749.16;;;20.07;94.12
77590;BME280;66746;51.328;12.332;2023-06-22T04:49:48;100739.25;;;20.04;94.54
77590;BME280;66746;51.328;12.332;2023-06-22T04:52:14;100741.25;;;20.02;94.21
77590;BME280;66746;51.328;12.332;2023-06-22T04:54:41;100720.72;;;19.94;94.09
77590;BME280;66746;51.328;12.332;2023-06-22T04:57:08;100724.50;;;20.05;94.54
77590;BME280;66746;51.328;12.332;2023-06-22T05:02:03;100718.97;;;20.05;94.61
77590;BME280;66746;51.328;12.332;2023-06-22T05:04:30;100714.78;;;20.00;94.72
77590;BME280;66746;51.328;12.332;2023-06-22T05:07:01;100724.72;;;20.15;94.64
77590;BME280;66746;51.328;12.332;2023-06-22T05:09:29;100684.38;;;20.01;94.35
77590;BME280;66746;51.328;12.332;2023-06-22T05:11:58;100707.22;;;20.16;94.89
77590;BME280;66746;51.328;12.332;2023-06-22T05:14:25;100700.97;;;20.39;94.50
77590;BME280;66746;51.328;12.332;2023-06-22T05:16:52;100685.28;;;20.52;93.17
77590;BME280;66746;51.328;12.332;2023-06-22T05:19:18;100671.25;;;20.68;92.55
77590;BME280;66746;51.328;12.332;2023-06-22T05:21:45;100674.44;;;20.87;91.60
77590;BME280;66746;51.328;12.332;2023-06-22T05:24:12;100674.13;;;21.15;90.92
77590;BME280;66746;51.328;12.332;2023-06-22T05:26:38;100644.66;;;21.39;89.26
77590;BME280;66746;51.328;12.332;2023-06-22T05:29:05;100636.69;;;21.58;88.43
77590;BME280;66746;51.328;12.332;2023-06-22T05:31:33;100627.44;;;21.70;87.50
77590;BME280;66746;51.328;12.332;2023-06-22T05:34:00;100613.63;;;21.70;87.25
77590;BME280;66746;51.328;12.332;2023-06-22T05:36:26;100608.25;;;21.69;86.89
77590;BME280;66746;51.328;12.332;2023-06-22T05:38:53;100601.09;;;21.77;86.68
77590;BME280;66746;51.328;12.332;2023-06-22T05:41:22;100603.44;;;21.94;85.58
77590;BME280;66746;51.328;12.332;2023-06-22T05:43:48;100606.09;;;23.16;80.28
77590;BME280;66746;51.328;12.332;2023-06-22T05:46:15;100616.47;;;24.38;76.55
77590;BME280;66746;51.328;12.332;2023-06-22T05:48:43;100602.00;;;25.23;72.21
77590;BME280;66746;51.328;12.332;2023-06-22T05:51:10;100596.00;;;25.76;69.48
77590;BME280;66746;51.328;12.332;2023-06-22T05:53:36;100590.41;;;26.51;67.92
77590;BME280;66746;51.328;12.332;2023-06-22T05:56:03;100584.66;;;27.34;63.75
77590;BME280;66746;51.328;12.332;2023-06-22T05:58:29;100587.97;;;27.20;62.56
77590;BME280;66746;51.328;12.332;2023-06-22T06:00:56;100588.72;;;26.94;64.83
77590;BME280;66746;51.328;12.332;2023-06-22T06:03:23;100583.25;;;26.48;63.05
77590;BME280;66746;51.328;12.332;2023-06-22T06:05:52;100589.53;;;26.50;63.28
77590;BME280;66746;51.328;12.332;2023-06-22T06:08:18;100586.84;;;26.58;64.34
77590;BME280;66746;51.328;12.332;2023-06-22T06:10:45;100590.56;;;25.93;65.35
77590;BME280;66746;51.328;12.332;2023-06-22T06:13:11;100595.69;;;25.79;65.56
77590;BME280;66746;51.328;12.332;2023-06-22T06:15:38;100604.53;;;25.55;65.85
77590;BME280;66746;51.328;12.332;2023-06-22T06:18:05;100615.72;;;25.34;67.27
77590;BME280;66746;51.328;12.332;2023-06-22T06:20:32;100606.44;;;25.55;65.59
77590;BME280;66746;51.328;12.332;2023-06-22T06:23:02;100619.25;;;25.36;65.59
77590;BME280;66746;51.328;12.332;2023-06-22T06:25:29;100623.38;;;25.52;66.88
77590;BME280;66746;51.328;12.332;2023-06-22T06:27:55;100625.72;;;25.66;65.75
77590;BME280;66746;51.328;12.332;2023-06-22T06:30:24;100633.75;;;25.40;66.08
77590;BME280;66746;51.328;12.332;2023-06-22T06:32:50;100636.63;;;25.19;65.29
77590;BME280;66746;51.328;12.332;2023-06-22T06:35:17;100637.34;;;25.12;66.79
77590;BME280;66746;51.328;12.332;2023-06-22T06:37:47;100636.16;;;25.14;67.44
77590;BME280;66746;51.328;12.332;2023-06-22T06:40:16;100644.78;;;25.11;65.69
77590;BME280;66746;51.328;12.332;2023-06-22T06:42:44;100640.81;;;25.04;67.37
77590;BME280;66746;51.328;12.332;2023-06-22T06:45:11;100648.72;;;25.09;65.22
77590;BME280;66746;51.328;12.332;2023-06-22T06:47:38;100647.00;;;25.36;65.11
77590;BME280;66746;51.328;12.332;2023-06-22T06:50:06;100645.88;;;25.68;63.62
77590;BME280;66746;51.328;12.332;2023-06-22T06:52:33;100640.06;;;25.71;63.12
77590;BME280;66746;51.328;12.332;2023-06-22T06:55:02;100644.44;;;25.64;64.93
77590;BME280;66746;51.328;12.332;2023-06-22T06:57:30;100641.22;;;25.59;63.99
77590;BME280;66746;51.328;12.332;2023-06-22T06:59:57;100643.78;;;26.27;62.75
77590;BME280;66746;51.328;12.332;2023-06-22T07:02:25;100638.53;;;26.97;60.42
77590;BME280;66746;51.328;12.332;2023-06-22T07:04:52;100645.53;;;27.01;59.61
77590;BME280;66746;51.328;12.332;2023-06-22T07:07:18;100644.59;;;27.10;59.71
77590;BME280;66746;51.328;12.332;2023-06-22T07:09:45;100653.75;;;26.76;60.30
77590;BME280;66746;51.328;12.332;2023-06-22T07:12:12;100644.44;;;26.48;60.27
77590;BME280;66746;51.328;12.332;2023-06-22T07:14:40;100640.31;;;26.15;62.52
77590;BME280;66746;51.328;12.332;2023-06-22T07:17:06;100639.16;;;25.80;63.37
77590;BME280;66746;51.328;12.332;2023-06-22T07:19:33;100647.94;;;25.66;61.98
77590;BME280;66746;51.328;12.332;2023-06-22T07:21:59;100642.91;;;25.31;63.82
77590;BME280;66746;51.328;12.332;2023-06-22T07:24:26;100642.63;;;25.34;65.14
77590;BME280;66746;51.328;12.332;2023-06-22T07:26:53;100639.75;;;25.55;63.49
77590;BME280;66746;51.328;12.332;2023-06-22T07:29:20;100635.91;;;26.03;62.00
77590;BME280;66746;51.328;12.332;2023-06-22T07:31:49;100641.88;;;26.18;61.58
77590;BME280;66746;51.328;12.332;2023-06-22T07:34:16;100639.97;;;26.28;60.48
77590;BME280;66746;51.328;12.332;2023-06-22T07:36:43;100630.53;;;26.48;59.75
77590;BME280;66746;51.328;12.332;2023-06-22T07:39:10;100628.69;;;26.76;59.47
77590;BME280;66746;51.328;12.332;2023-06-22T07:41:36;100637.34;;;27.00;58.96
77590;BME280;66746;51.328;12.332;2023-06-22T07:44:03;100637.94;;;27.21;57.10
77590;BME280;66746;51.328;12.332;2023-06-22T07:46:29;100634.59;;;27.18;59.72
77590;BME280;66746;51.328;12.332;2023-06-22T07:48:57;100633.78;;;27.07;58.46
77590;BME280;66746;51.328;12.332;2023-06-22T07:51:24;100629.22;;;27.06;58.49
77590;BME280;66746;51.328;12.332;2023-06-22T07:53:51;100639.53;;;27.24;59.83
77590;BME280;66746;51.328;12.332;2023-06-22T07:56:18;100640.16;;;27.45;57.20
77590;BME280;66746;51.328;12.332;2023-06-22T07:58:45;100636.94;;;27.75;55.03
77590;BME280;66746;51.328;12.332;2023-06-22T08:01:12;100631.22;;;28.12;57.01
77590;BME280;66746;51.328;12.332;2023-06-22T08:03:38;100626.38;;;28.22;53.88
77590;BME280;66746;51.328;12.332;2023-06-22T08:06:06;100625.84;;;28.18;53.30
77590;BME280;66746;51.328;12.332;2023-06-22T08:08:33;100620.38;;;28.34;55.05
77590;BME280;66746;51.328;12.332;2023-06-22T08:10:59;100601.63;;;28.78;52.26
77590;BME280;66746;51.328;12.332;2023-06-22T08:13:26;100601.56;;;28.62;52.80
77590;BME280;66746;51.328;12.332;2023-06-22T08:15:53;100595.19;;;28.52;51.61
77590;BME280;66746;51.328;12.332;2023-06-22T08:18:20;100608.69;;;28.56;53.70
77590;BME280;66746;51.328;12.332;2023-06-22T08:20:47;100601.31;;;28.55;52.98
77590;BME280;66746;51.328;12.332;2023-06-22T08:23:15;100603.63;;;28.60;52.13
77590;BME280;66746;51.328;12.332;2023-06-22T08:25:41;100597.59;;;28.47;52.26
77590;BME280;66746;51.328;12.332;2023-06-22T08:28:08;100594.66;;;28.48;53.00
77590;BME280;66746;51.328;12.332;2023-06-22T08:30:34;100608.59;;;28.48;51.22
77590;BME280;66746;51.328;12.332;2023-06-22T08:33:01;100606.28;;;28.44;53.51
77590;BME280;66746;51.328;12.332;2023-06-22T08:35:30;100609.56;;;28.31;50.80
77590;BME280;66746;51.328;12.332;2023-06-22T08:37:57;100601.38;;;28.12;53.12
77590;BME280;66746;51.328;12.332;2023-06-22T08:40:25;100600.00;;;28.16;53.18
77590;BME280;66746;51.328;12.332;2023-06-22T08:42:52;100603.09;;;28.31;52.54
77590;BME280;66746;51.328;12.332;2023-06-22T08:45:37;100602.75;;;28.59;53.42
77590;BME280;66746;51.328;12.332;2023-06-22T08:48:04;100600.75;;;28.52;52.51
77590;BME280;66746;51.328;12.332;2023-06-22T08:50:31;100588.97;;;28.58;52.80
77590;BME280;66746;51.328;12.332;2023-06-22T08:52:57;100595.97;;;28.36;53.09
77590;BME280;66746;51.328;12.332;2023-06-22T08:55:25;100594.50;;;28.83;51.95
77590;BME280;66746;51.328;12.332;2023-06-22T08:57:53;100583.09;;;29.19;50.33
77590;BME280;66746;51.328;12.332;2023-06-22T09:00:20;100587.34;;;29.47;49.91
77590;BME280;66746;51.328;12.332;2023-06-22T09:02:47;100590.88;;;29.73;48.08
77590;BME280;66746;51.328;12.332;2023-06-22T09:05:15;100588.78;;;29.91;47.67
77590;BME280;66746;51.328;12.332;2023-06-22T09:07:41;100587.53;;;30.18;45.95
77590;BME280;66746;51.328;12.332;2023-06-22T09:10:08;100584.91;;;30.32;47.29
77590;BME280;66746;51.328;12.332;2023-06-22T09:12:36;100577.94;;;30.28;47.26
77590;BME280;66746;51.328;12.332;2023-06-22T09:15:03;100575.63;;;30.40;43.61
77590;BME280;66746;51.328;12.332;2023-06-22T09:17:33;100575.09;;;30.20;44.02
77590;BME280;66746;51.328;12.332;2023-06-22T09:19:59;100577.72;;;30.38;46.13
77590;BME280;66746;51.328;12.332;2023-06-22T09:22:28;100568.09;;;30.24;44.80
77590;BME280;66746;51.328;12.332;2023-06-22T09:24:54;100558.06;;;30.62;46.00
77590;BME280;66746;51.328;12.332;2023-06-22T09:27:21;100552.72;;;30.28;43.26
77590;BME280;66746;51.328;12.332;2023-06-22T09:29:49;100554.16;;;29.60;45.36
77590;BME280;66746;51.328;12.332;2023-06-22T09:32:17;100552.38;;;29.43;45.95
77590;BME280;66746;51.328;12.332;2023-06-22T09:34:43;100549.25;;;29.30;44.52
77590;BME280;66746;51.328;12.332;2023-06-22T09:37:10;100544.91;;;29.67;44.70
77590;BME280;66746;51.328;12.332;2023-06-22T09:39:36;100552.38;;;29.43;44.16
77590;BME280;66746;51.328;12.332;2023-06-22T09:42:03;100538.72;;;29.16;45.22
77590;BME280;66746;51.328;12.332;2023-06-22T09:44:30;100536.94;;;29.07;47.29
77590;BME280;66746;51.328;12.332;2023-06-22T09:46:58;100536.59;;;29.10;47.39
77590;BME280;66746;51.328;12.332;2023-06-22T09:49:24;100541.53;;;29.24;44.50
77590;BME280;66746;51.328;12.332;2023-06-22T09:52:11;100534.56;;;29.36;45.12
77590;BME280;66746;51.328;12.332;2023-06-22T09:54:39;100540.19;;;29.68;44.36
77590;BME280;66746;51.328;12.332;2023-06-22T09:57:06;100540.53;;;30.05;45.12
77590;BME280;66746;51.328;12.332;2023-06-22T09:59:33;100539.41;;;30.22;42.61
77590;BME280;66746;51.328;12.332;2023-06-22T10:02:01;100529.88;;;30.56;40.66
77590;BME280;66746;51.328;12.332;2023-06-22T10:04:27;100530.38;;;30.59;40.88
77590;BME280;66746;51.328;12.332;2023-06-22T10:06:54;100532.06;;;30.76;41.04
77590;BME280;66746;51.328;12.332;2023-06-22T10:09:21;100513.03;;;31.02;40.80
77590;BME280;66746;51.328;12.332;2023-06-22T10:11:47;100522.22;;;31.19;39.45
77590;BME280;66746;51.328;12.332;2023-06-22T10:14:14;100505.41;;;31.42;40.10
77590;BME280;66746;51.328;12.332;2023-06-22T10:16:41;100508.41;;;31.40;38.47
77590;BME280;66746;51.328;12.332;2023-06-22T10:19:09;100504.19;;;31.44;37.13
77590;BME280;66746;51.328;12.332;2023-06-22T10:21:36;100496.31;;;31.62;38.39
77590;BME280;66746;51.328;12.332;2023-06-22T10:24:03;100497.22;;;31.77;39.63
77590;BME280;66746;51.328;12.332;2023-06-22T10:26:29;100490.16;;;31.81;38.78
77590;BME280;66746;51.328;12.332;2023-06-22T10:28:56;100487.69;;;32.01;39.67
77590;BME280;66746;51.328;12.332;2023-06-22T10:31:41;100497.81;;;31.87;36.89
77590;BME280;66746;51.328;12.332;2023-06-22T10:34:10;100484.22;;;31.62;39.07
77590;BME280;66746;51.328;12.332;2023-06-22T10:36:38;100484.53;;;31.81;38.35
77590;BME280;66746;51.328;12.332;2023-06-22T10:39:04;100488.28;;;31.96;40.49
77590;BME280;66746;51.328;12.332;2023-06-22T10:41:31;100485.91;;;31.85;38.86
77590;BME280;66746;51.328;12.332;2023-06-22T10:43:57;100475.41;;;32.02;38.09
77590;BME280;66746;51.328;12.332;2023-06-22T10:46:24;100472.03;;;32.06;38.63
77590;BME280;66746;51.328;12.332;2023-06-22T10:48:51;100470.06;;;32.21;37.25
77590;BME280;66746;51.328;12.332;2023-06-22T10:51:19;100465.72;;;32.19;38.62
77590;BME280;66746;51.328;12.332;2023-06-22T10:53:46;100473.88;;;31.99;38.86
77590;BME280;66746;51.328;12.332;2023-06-22T10:56:15;100468.84;;;31.72;39.01
77590;BME280;66746;51.328;12.332;2023-06-22T10:58:43;100461.50;;;31.71;37.32
77590;BME280;66746;51.328;12.332;2023-06-22T11:01:09;100456.41;;;31.89;40.40
77590;BME280;66746;51.328;12.332;2023-06-22T11:03:55;100455.09;;;32.14;36.49
77590;BME280;66746;51.328;12.332;2023-06-22T11:06:23;100454.00;;;32.15;37.63
77590;BME280;66746;51.328;12.332;2023-06-22T11:08:50;100455.09;;;32.14;37.42
77590;BME280;66746;51.328;12.332;2023-06-22T11:11:32;100444.88;;;31.84;39.77
77590;BME280;66746;51.328;12.332;2023-06-22T11:14:00;100444.47;;;31.58;38.94
77590;BME280;66746;51.328;12.332;2023-06-22T11:16:27;100439.22;;;31.55;37.93
77590;BME280;66746;51.328;12.332;2023-06-22T11:18:55;100433.03;;;31.97;39.14
77590;BME280;66746;51.328;12.332;2023-06-22T11:21:22;100424.81;;;31.95;38.68
77590;BME280;66746;51.328;12.332;2023-06-22T11:23:49;100428.31;;;31.60;38.40
77590;BME280;66746;51.328;12.332;2023-06-22T11:26:16;100426.09;;;31.85;40.64
77590;BME280;66746;51.328;12.332;2023-06-22T11:28:46;100437.44;;;31.40;39.76
77590;BME280;66746;51.328;12.332;2023-06-22T11:31:12;100432.03;;;31.38;42.87
77590;BME280;66746;51.328;12.332;2023-06-22T11:33:54;100427.00;;;31.11;41.62
77590;BME280;66746;51.328;12.332;2023-06-22T11:36:21;100424.56;;;30.77;41.81
77590;BME280;66746;51.328;12.332;2023-06-22T11:38:47;100417.44;;;31.20;40.76
77590;BME280;66746;51.328;12.332;2023-06-22T11:41:15;100420.00;;;31.07;42.59
77590;BME280;66746;51.328;12.332;2023-06-22T11:43:41;100411.19;;;31.55;39.43
77590;BME280;66746;51.328;12.332;2023-06-22T11:46:08;100418.16;;;31.59;42.91
77590;BME280;66746;51.328;12.332;2023-06-22T11:48:34;100423.34;;;31.48;41.67
77590;BME280;66746;51.328;12.332;2023-06-22T11:51:01;100420.69;;;31.83;41.04
77590;BME280;66746;51.328;12.332;2023-06-22T11:53:28;100412.28;;;31.83;39.54
77590;BME280;66746;51.328;12.332;2023-06-22T11:55:54;100395.94;;;32.31;39.37
77590;BME280;66746;51.328;12.332;2023-06-22T11:58:31;100402.75;;;32.43;38.67
77590;BME280;66746;51.328;12.332;2023-06-22T12:01:09;100374.06;;;31.82;39.44
77590;BME280;66746;51.328;12.332;2023-06-22T12:03:59;100383.53;;;31.81;39.38
77590;BME280;66746;51.328;12.332;2023-06-22T12:06:45;100383.56;;;32.10;40.50
77590;BME280;66746;51.328;12.332;2023-06-22T12:09:12;100381.50;;;32.48;39.01
77590;BME280;66746;51.328;12.332;2023-06-22T12:11:39;100379.63;;;32.41;38.58
77590;BME280;66746;51.328;12.332;2023-06-22T12:14:06;100375.59;;;32.64;37.95
77590;BME280;66746;51.328;12.332;2023-06-22T12:16:33;100359.97;;;32.55;39.00
77590;BME280;66746;51.328;12.332;2023-06-22T12:18:59;100352.78;;;32.53;38.28
77590;BME280;66746;51.328;12.332;2023-06-22T12:21:26;100360.19;;;32.75;37.58
77590;BME280;66746;51.328;12.332;2023-06-22T12:23:52;100348.25;;;32.94;37.05
77590;BME280;66746;51.328;12.332;2023-06-22T12:26:19;100352.00;;;32.80;38.78
77590;BME280;66746;51.328;12.332;2023-06-22T12:28:45;100362.31;;;33.15;38.55
77590;BME280;66746;51.328;12.332;2023-06-22T12:31:13;100351.75;;;33.45;37.55
77590;BME280;66746;51.328;12.332;2023-06-22T12:33:40;100328.72;;;33.28;35.46
77590;BME280;66746;51.328;12.332;2023-06-22T12:36:08;100345.59;;;33.28;36.15
77590;BME280;66746;51.328;12.332;2023-06-22T12:38:34;100329.47;;;33.43;35.80
77590;BME280;66746;51.328;12.332;2023-06-22T12:41:01;100326.34;;;33.04;35.80
77590;BME280;66746;51.328;12.332;2023-06-22T12:43:27;100332.75;;;32.56;36.25
77590;BME280;66746;51.328;12.332;2023-06-22T12:45:54;100320.31;;;32.29;38.10
77590;BME280;66746;51.328;12.332;2023-06-22T12:48:22;100327.13;;;32.56;38.18
77590;BME280;66746;51.328;12.332;2023-06-22T12:50:49;100320.03;;;32.81;38.14
77590;BME280;66746;51.328;12.332;2023-06-22T12:53:15;100315.91;;;32.98;37.94
77590;BME280;66746;51.328;12.332;2023-06-22T12:55:42;100291.53;;;32.84;36.29